Time;durP1;ratioP1;P1;durP2;ratioP2;P2;SDS_P1;SDS_P2;PMS_P1;PMS_P2;Temp;Humidity;BMP_temperature;BMP_pressure;BME280_temperature;BME280_humidity;BME280_pressure;Samples;Min_cycle;Max_cycle;Signal;HPM_P1;HPM_P2
2022/11/07 00:00:06;;;;;;;12.75;8.70;;;11.10;99.90;;;;;;4963962;29;20035;-77
2022/11/07 00:02:32;;;;;;;15.00;8.68;;;11.20;99.90;;;;;;4965496;28;20038;-79
2022/11/07 00:04:58;;;;;;;13.00;8.20;;;10.40;99.90;;;;;;4964344;28;20098;-78
2022/11/07 00:07:23;;;;;;;10.20;7.80;;;10.70;99.90;;;;;;4943664;29;20047;-79
2022/11/07 00:09:49;;;;;;;14.30;8.32;;;10.80;99.90;;;;;;4959570;28;20082;-79
2022/11/07 00:12:17;;;;;;;11.70;8.40;;;10.80;99.90;;;;;;4958553;28;20101;-79
2022/11/07 00:14:42;;;;;;;12.50;7.50;;;10.60;99.90;;;;;;4957541;28;20043;-80
2022/11/07 00:17:08;;;;;;;13.85;7.78;;;11.00;99.90;;;;;;4951611;28;20586;-81
2022/11/07 00:19:34;;;;;;;12.23;7.47;;;11.20;99.90;;;;;;4935310;28;20372;-81
2022/11/07 00:22:03;;;;;;;10.32;7.90;;;10.60;99.90;;;;;;4961440;28;20043;-81
2022/11/07 00:24:31;;;;;;;10.35;7.25;;;10.70;99.90;;;;;;4952396;28;20343;-80
2022/11/07 00:26:57;;;;;;;9.07;7.90;;;11.30;99.90;;;;;;4938965;28;20070;-80
2022/11/07 00:29:23;;;;;;;10.70;7.45;;;10.70;99.90;;;;;;4951953;28;20027;-79
2022/11/07 00:31:49;;;;;;;14.55;7.78;;;11.20;99.90;;;;;;4919604;28;20031;-78
2022/11/07 00:34:15;;;;;;;12.27;7.70;;;11.10;99.90;;;;;;4948589;29;20179;-80
2022/11/07 00:36:41;;;;;;;13.63;7.35;;;10.80;99.90;;;;;;4950187;28;20046;-78
2022/11/07 00:39:07;;;;;;;12.95;7.80;;;10.60;99.90;;;;;;4948552;29;20039;-79
2022/11/07 00:41:33;;;;;;;12.73;7.75;;;10.80;99.90;;;;;;4931717;29;20058;-79
2022/11/07 00:43:59;;;;;;;8.80;5.70;;;10.60;99.90;;;;;;4955575;29;20035;-80
2022/11/07 00:46:24;;;;;;;11.07;7.20;;;11.10;99.90;;;;;;4948437;29;20037;-79
2022/11/07 00:48:50;;;;;;;9.38;7.10;;;10.80;99.90;;;;;;4945013;29;20047;-79
2022/11/07 00:51:18;;;;;;;10.95;7.07;;;10.90;99.90;;;;;;4940982;29;20054;-79
2022/11/07 00:53:44;;;;;;;12.40;7.25;;;11.30;99.90;;;;;;4963917;29;20039;-80
2022/11/07 00:56:13;;;;;;;10.15;7.05;;;11.40;99.90;;;;;;4959843;29;20047;-79
2022/11/07 00:58:41;;;;;;;13.63;6.93;;;11.30;99.90;;;;;;4963338;29;20039;-80
2022/11/07 01:01:14;;;;;;;9.57;6.63;;;11.10;99.90;;;;;;4959111;29;20047;-79
2022/11/07 01:06:30;;;;;;;16.50;7.90;;;10.90;99.90;;;;;;4961480;29;20047;-79
2022/11/07 01:08:56;;;;;;;12.07;7.65;;;11.20;99.90;;;;;;4957088;29;20102;-80
2022/11/07 01:11:24;;;;;;;8.68;4.53;;;10.90;99.90;;;;;;4979768;28;20210;-78
2022/11/07 01:13:49;;;;;;;13.48;7.13;;;10.90;99.90;;;;;;4947920;29;20254;-79
2022/11/07 01:16:15;;;;;;;14.88;7.38;;;11.10;99.90;;;;;;4939001;29;20050;-79
2022/11/07 01:18:41;;;;;;;13.43;6.95;;;11.30;99.90;;;;;;4958868;28;20043;-78
2022/11/07 01:21:08;;;;;;;9.43;6.78;;;10.80;99.90;;;;;;4930509;29;20311;-79
2022/11/07 01:23:34;;;;;;;14.88;7.03;;;11.40;99.90;;;;;;4954625;29;20243;-77
2022/11/07 01:26:09;;;;;;;14.98;7.88;;;11.50;99.90;;;;;;4942574;29;20051;-77
2022/11/07 01:28:35;;;;;;;11.63;7.22;;;11.00;99.90;;;;;;4946907;29;20038;-80
2022/11/07 01:31:07;;;;;;;11.40;6.20;;;10.80;99.90;;;;;;4957759;29;20031;-78
2022/11/07 01:33:33;;;;;;;12.18;6.63;;;11.50;99.90;;;;;;4962797;28;20043;-78
2022/11/07 01:36:07;;;;;;;13.18;6.80;;;11.00;99.90;;;;;;4940768;29;20107;-79
2022/11/07 01:38:38;;;;;;;11.98;6.32;;;11.40;99.90;;;;;;4928676;29;20106;-78
2022/11/07 01:44:11;;;;;;;10.50;6.35;;;10.90;99.90;;;;;;4962843;29;20408;-78
2022/11/07 01:46:43;;;;;;;13.15;7.18;;;11.20;99.90;;;;;;4951820;29;20039;-78
2022/11/07 01:49:20;;;;;;;9.43;6.22;;;11.00;99.90;;;;;;4927523;29;20102;-78
2022/11/07 01:52:01;;;;;;;15.05;6.88;;;11.40;99.90;;;;;;4947598;29;20043;-79
2022/11/07 01:54:34;;;;;;;12.57;6.75;;;10.90;99.90;;;;;;4962423;28;20106;-77
2022/11/07 01:57:05;;;;;;;17.35;6.97;;;11.20;99.90;;;;;;4950564;29;20042;-77
2022/11/07 01:59:33;;;;;;;11.45;6.15;;;10.90;99.90;;;;;;4962001;29;20026;-77
2022/11/07 02:01:59;;;;;;;15.75;6.60;;;11.50;99.90;;;;;;4940162;29;20731;-79
2022/11/07 02:04:28;;;;;;;12.60;6.22;;;11.10;99.90;;;;;;4946053;29;20039;-79
2022/11/07 02:07:00;;;;;;;13.27;6.35;;;11.00;99.90;;;;;;4946501;29;20110;-79
2022/11/07 02:09:26;;;;;;;10.40;6.00;;;11.40;99.90;;;;;;4959391;29;20036;-78
2022/11/07 02:11:52;;;;;;;12.95;6.07;;;11.40;99.90;;;;;;4954883;28;20094;-79
2022/11/07 02:14:18;;;;;;;13.00;6.07;;;11.60;99.90;;;;;;4958664;29;20301;-78
2022/11/07 02:16:45;;;;;;;11.15;5.25;;;11.60;99.90;;;;;;4956057;29;20046;-79
2022/11/07 02:19:31;;;;;;;11.52;6.40;;;11.10;99.90;;;;;;4953891;29;20081;-80
2022/11/07 02:22:21;;;;;;;10.10;6.03;;;11.50;99.90;;;;;;4944901;29;20031;-77
2022/11/07 02:25:00;;;;;;;11.00;5.53;;;11.00;99.90;;;;;;4944445;29;20800;-77
2022/11/07 02:27:28;;;;;;;8.90;5.82;;;11.40;99.90;;;;;;4941761;29;20035;-78
2022/11/07 02:30:01;;;;;;;11.02;5.60;;;11.40;99.90;;;;;;4955656;29;20035;-77
2022/11/07 02:32:28;;;;;;;11.05;5.55;;;11.50;99.90;;;;;;4959298;29;20081;-78
2022/11/07 02:35:35;;;;;;;11.05;5.07;;;11.10;99.90;;;;;;4954472;29;20422;-77
2022/11/07 02:38:26;;;;;;;9.13;4.70;;;11.40;99.90;;;;;;4925131;28;20102;-78
2022/11/07 02:41:31;;;;;;;10.77;4.78;;;11.50;99.90;;;;;;4947609;28;20210;-80
2022/11/07 02:44:04;;;;;;;10.05;5.00;;;11.40;99.90;;;;;;4939254;29;20409;-79
2022/11/07 02:46:31;;;;;;;12.25;5.10;;;11.10;99.90;;;;;;4963377;28;20066;-78
2022/11/07 02:49:17;;;;;;;10.48;5.05;;;11.30;99.90;;;;;;4950063;29;20055;-77
2022/11/07 02:52:16;;;;;;;9.45;4.63;;;11.00;99.90;;;;;;4965362;29;20051;-80
2022/11/07 02:54:41;;;;;;;9.30;4.70;;;10.90;99.90;;;;;;4917514;29;20047;-80
2022/11/07 02:58:06;;;;;;;8.70;4.60;;;11.00;99.90;;;;;;4929580;29;20038;-81
2022/11/07 03:00:31;;;;;;;8.00;5.25;;;13.00;99.90;;;;;;4965765;29;20038;-79
2022/11/07 03:02:57;;;;;;;13.93;5.40;;;11.30;99.90;;;;;;4912141;29;20035;-81
2022/11/07 03:05:26;;;;;;;13.77;5.68;;;10.90;99.90;;;;;;4963706;29;20083;-80
2022/11/07 03:07:54;;;;;;;11.52;5.15;;;11.30;99.90;;;;;;4958125;29;20047;-79
2022/11/07 03:10:20;;;;;;;9.80;4.70;;;11.10;99.90;;;;;;4950121;29;20385;-80
2022/11/07 03:12:46;;;;;;;14.30;5.55;;;11.50;99.90;;;;;;4949348;29;20034;-80
2022/11/07 03:15:12;;;;;;;13.50;4.28;;;11.40;99.90;;;;;;4933743;29;20031;-79
2022/11/07 03:17:39;;;;;;;7.53;4.28;;;11.40;99.90;;;;;;4964835;29;20031;-81
2022/11/07 03:20:17;;;;;;;7.75;4.03;;;10.90;99.90;;;;;;4965219;29;20039;-80
2022/11/07 03:22:45;;;;;;;8.85;3.80;;;10.90;99.90;;;;;;4940301;29;20226;-80
2022/11/07 03:25:11;;;;;;;11.30;4.20;;;10.90;99.90;;;;;;4917860;29;20039;-80
2022/11/07 03:27:45;;;;;;;8.50;4.35;;;11.00;99.90;;;;;;4898578;29;20215;-81
2022/11/07 03:30:11;;;;;;;9.77;4.50;;;10.90;99.90;;;;;;4922381;29;20042;-80
2022/11/07 03:32:36;;;;;;;7.07;4.30;;;10.90;99.90;;;;;;4948132;29;20031;-79
2022/11/07 03:35:02;;;;;;;8.95;4.43;;;10.80;99.90;;;;;;4943484;29;20369;-79
2022/11/07 03:37:28;;;;;;;6.93;4.75;;;11.00;99.90;;;;;;4934348;28;20668;-80
2022/11/07 03:39:54;;;;;;;11.50;4.50;;;11.30;99.90;;;;;;4929752;28;20134;-79
2022/11/07 03:42:22;;;;;;;11.60;4.65;;;11.20;99.90;;;;;;4955023;28;20039;-80
2022/11/07 03:44:48;;;;;;;10.88;4.45;;;12.70;99.90;;;;;;4943327;29;20059;-81
2022/11/07 03:47:13;;;;;;;14.57;4.70;;;11.30;99.90;;;;;;4979323;28;20290;-78
2022/11/07 03:49:39;;;;;;;11.27;4.30;;;11.10;99.90;;;;;;4967910;28;20042;-78
2022/11/07 03:52:10;;;;;;;10.75;4.68;;;11.00;99.90;;;;;;4958440;28;20035;-79
2022/11/07 03:54:35;;;;;;;9.45;4.28;;;11.00;99.90;;;;;;4940275;28;20081;-78
2022/11/07 03:57:01;;;;;;;7.70;3.67;;;11.00;99.90;;;;;;4982970;28;20023;-79
2022/11/07 03:59:27;;;;;;;12.60;4.28;;;11.30;99.90;;;;;;4935722;28;20348;-79
2022/11/07 04:01:52;;;;;;;10.77;3.97;;;11.10;99.90;;;;;;4967027;28;20125;-78
2022/11/07 04:04:18;;;;;;;11.63;4.50;;;10.90;99.90;;;;;;4968274;28;20205;-79
2022/11/07 04:06:44;;;;;;;9.80;4.00;;;11.30;99.90;;;;;;4961277;29;20218;-79
2022/11/07 04:09:10;;;;;;;11.60;4.70;;;;;;;;;;4955177;28;20030;-78
2022/11/07 04:17:18;;;;;;;10.32;4.03;;;10.80;99.90;;;;;;4953625;28;20133;-78
2022/11/07 04:19:49;;;;;;;11.32;4.20;;;11.00;99.90;;;;;;4985992;28;20038;-79
2022/11/07 04:22:15;;;;;;;11.50;4.22;;;11.20;99.90;;;;;;4970578;28;20101;-80
2022/11/07 04:24:41;;;;;;;11.80;4.55;;;10.90;99.90;;;;;;4965574;28;20035;-79
2022/11/07 04:29:55;;;;;;;13.52;4.18;;;12.40;99.90;;;;;;4991187;28;20082;-80
2022/11/07 04:32:32;;;;;;;10.45;5.03;;;11.20;99.90;;;;;;4985484;28;20042;-78
2022/11/07 04:34:57;;;;;;;9.13;4.18;;;11.00;99.90;;;;;;4981829;28;20028;-78
2022/11/07 04:37:23;;;;;;;12.10;4.72;;;10.80;99.90;;;;;;4956051;28;20041;-78
2022/11/07 04:39:50;;;;;;;11.10;4.35;;;11.20;99.90;;;;;;4944862;28;20043;-79
2022/11/07 04:42:16;;;;;;;10.75;3.85;;;10.90;99.90;;;;;;4941793;28;20046;-79
2022/11/07 04:44:42;;;;;;;7.65;4.05;;;11.00;99.90;;;;;;4967692;28;20072;-80
2022/11/07 04:47:07;;;;;;;12.93;4.90;;;11.10;99.90;;;;;;4967105;28;20089;-80
2022/11/07 04:49:33;;;;;;;11.10;4.22;;;11.00;99.90;;;;;;4983177;28;20046;-80
2022/11/07 04:51:59;;;;;;;12.63;4.65;;;11.20;99.90;;;;;;4956392;28;20171;-80
2022/11/07 04:54:24;;;;;;;12.10;4.25;;;11.10;99.90;;;;;;4929933;28;20038;-79
2022/11/07 04:56:50;;;;;;;14.80;5.00;;;11.20;99.90;;;;;;4937124;28;20047;-79
2022/11/07 04:59:16;;;;;;;14.52;4.40;;;10.90;99.90;;;;;;4949845;28;20134;-79
2022/11/07 05:01:41;;;;;;;10.43;5.47;;;11.20;99.90;;;;;;4933590;28;20385;-80
2022/11/07 05:04:07;;;;;;;12.52;4.93;;;11.30;99.90;;;;;;4926569;29;20035;-79
2022/11/07 05:06:36;;;;;;;11.50;5.07;;;11.30;99.90;;;;;;4971394;28;20245;-79
2022/11/07 05:09:02;;;;;;;15.85;5.22;;;11.20;99.90;;;;;;4943704;28;20042;-79
2022/11/07 05:11:28;;;;;;;15.68;5.40;;;11.30;99.90;;;;;;4966310;28;20085;-80
2022/11/07 05:13:54;;;;;;;11.38;6.53;;;11.20;99.90;;;;;;4984004;28;20027;-81
2022/11/07 05:16:20;;;;;;;8.63;5.07;;;11.20;99.90;;;;;;4966768;28;20035;-79
2022/11/07 05:18:45;;;;;;;14.65;5.50;;;11.30;99.90;;;;;;4950512;28;20039;-79
2022/11/07 05:21:11;;;;;;;13.85;5.50;;;11.00;99.90;;;;;;4966667;28;20050;-78
2022/11/07 05:23:37;;;;;;;13.38;4.97;;;11.10;99.90;;;;;;4966712;28;20034;-77
2022/11/07 05:26:03;;;;;;;12.40;5.30;;;10.90;99.90;;;;;;4966730;28;20202;-77
2022/11/07 05:28:31;;;;;;;13.73;5.57;;;10.90;99.90;;;;;;4981334;28;20042;-79
2022/11/07 05:30:59;;;;;;;14.27;4.88;;;11.10;99.90;;;;;;4933955;29;20031;-80
2022/11/07 05:33:28;;;;;;;11.00;5.22;;;10.80;99.90;;;;;;4973157;28;20074;-78
2022/11/07 05:35:54;;;;;;;12.85;5.50;;;11.30;99.90;;;;;;4955238;29;20039;-81
2022/11/07 05:38:20;;;;;;;15.88;5.57;;;10.90;99.90;;;;;;4913218;28;20070;-78
2022/11/07 05:40:45;;;;;;;9.25;5.05;;;11.20;99.90;;;;;;4944880;29;20343;-78
2022/11/07 05:43:13;;;;;;;9.23;4.70;;;10.80;99.90;;;;;;4912333;29;20040;-78
2022/11/07 05:45:43;;;;;;;13.68;5.15;;;10.80;99.90;;;;;;4911980;29;20051;-77
2022/11/07 05:48:11;;;;;;;10.05;4.68;;;10.70;99.90;;;;;;4928173;29;20260;-80
2022/11/07 05:50:38;;;;;;;14.77;6.18;;;11.00;99.90;;;;;;4937964;29;20285;-78
2022/11/07 05:53:04;;;;;;;12.00;5.93;;;10.90;99.90;;;;;;4930576;28;20210;-78
2022/11/07 05:55:31;;;;;;;11.55;5.45;;;11.10;99.90;;;;;;4946844;29;20042;-79
2022/11/07 05:57:56;;;;;;;15.93;7.32;;;10.80;99.90;;;;;;4927278;29;20238;-79
2022/11/07 06:00:25;;;;;;;16.40;8.57;;;11.20;99.90;;;;;;4979198;28;20070;-79
2022/11/07 06:03:00;;;;;;;12.65;7.55;;;10.90;99.90;;;;;;4946893;29;20037;-80
2022/11/07 06:05:27;;;;;;;13.73;6.68;;;11.00;99.90;;;;;;4931349;29;20224;-79
2022/11/07 06:07:53;;;;;;;11.60;6.60;;;10.90;99.90;;;;;;4930713;29;20057;-79
2022/11/07 06:10:19;;;;;;;15.07;7.60;;;10.40;99.90;;;;;;4931143;29;20039;-79
2022/11/07 06:12:55;;;;;;;13.65;6.78;;;11.30;99.90;;;;;;4945805;29;20039;-80
2022/11/07 06:15:28;;;;;;;12.30;7.50;;;11.00;99.90;;;;;;4975288;28;20043;-79
2022/11/07 06:18:01;;;;;;;12.90;6.97;;;11.30;99.90;;;;;;4948280;28;20034;-80
2022/11/07 06:20:27;;;;;;;11.98;7.78;;;11.20;99.90;;;;;;4961541;28;20023;-81
2022/11/07 06:22:58;;;;;;;15.45;8.05;;;11.20;99.90;;;;;;4946692;29;20035;-80
2022/11/07 06:25:24;;;;;;;16.08;7.70;;;11.40;99.90;;;;;;4951556;29;20039;-78
2022/11/07 06:27:50;;;;;;;15.63;8.02;;;11.20;99.90;;;;;;4946416;28;20035;-81
2022/11/07 06:30:19;;;;;;;16.05;9.38;;;11.30;99.90;;;;;;4931549;29;20047;-80
2022/11/07 06:32:44;;;;;;;14.80;8.52;;;11.20;99.90;;;;;;4931191;29;20061;-79
2022/11/07 06:35:11;;;;;;;12.25;6.60;;;11.30;99.90;;;;;;4946625;29;20415;-79
2022/11/07 06:37:37;;;;;;;14.60;7.18;;;10.80;99.90;;;;;;4930185;29;20070;-77
2022/11/07 06:40:04;;;;;;;16.77;8.00;;;11.00;99.90;;;;;;4931773;28;20243;-78
2022/11/07 06:42:31;;;;;;;21.00;8.40;;;11.50;99.90;;;;;;4947096;28;20043;-79
2022/11/07 06:44:57;;;;;;;11.93;4.88;;;11.60;99.90;;;;;;4962006;29;20039;-79
2022/11/07 06:47:22;;;;;;;16.10;7.82;;;10.30;99.90;;;;;;4962902;28;20035;-78
2022/11/07 06:49:48;;;;;;;16.27;8.40;;;11.50;99.90;;;;;;4945944;29;20310;-79
2022/11/07 06:52:15;;;;;;;10.45;6.85;;;;;;;;;;4946061;29;20102;-80
2022/11/07 06:54:42;;;;;;;18.63;7.47;;;10.70;99.90;;;;;;4965699;28;20058;-80
2022/11/07 06:57:08;;;;;;;12.18;7.55;;;10.70;99.90;;;;;;4960795;28;20034;-82
2022/11/07 06:59:34;;;;;;;18.83;8.18;;;11.60;99.90;;;;;;4950514;28;20368;-80
2022/11/07 07:02:00;;;;;;;15.38;6.82;;;11.30;99.90;;;;;;4965622;28;20066;-80
2022/11/07 07:04:26;;;;;;;12.75;7.05;;;11.50;99.90;;;;;;4933956;28;20103;-80
2022/11/07 07:06:52;;;;;;;15.07;6.63;;;10.90;99.90;;;;;;4980551;28;20034;-80
2022/11/07 07:09:17;;;;;;;12.05;6.93;;;11.50;99.90;;;;;;4966110;28;20038;-80
2022/11/07 07:11:44;;;;;;;13.63;6.30;;;11.00;99.90;;;;;;4949809;28;20333;-79
2022/11/07 07:14:10;;;;;;;12.77;6.22;;;11.10;99.90;;;;;;4951467;28;20065;-80
2022/11/07 07:16:36;;;;;;;12.85;5.70;;;11.10;99.90;;;;;;4949096;28;20030;-79
2022/11/07 07:19:02;;;;;;;11.52;5.68;;;11.10;99.90;;;;;;4914229;29;20073;-80
2022/11/07 07:21:28;;;;;;;13.88;5.93;;;11.60;99.90;;;;;;4947684;28;20090;-80
2022/11/07 07:23:54;;;;;;;13.48;5.40;;;11.60;99.90;;;;;;4961605;29;20360;-78
2022/11/07 07:26:20;;;;;;;12.30;5.75;;;11.10;99.90;;;;;;4946125;28;20051;-78
2022/11/07 07:28:47;;;;;;;17.02;7.60;;;11.60;99.90;;;;;;4960407;29;20094;-78
2022/11/07 07:31:13;;;;;;;14.82;6.82;;;11.70;99.90;;;;;;4958157;28;20056;-77
2022/11/07 07:33:45;;;;;;;19.08;8.55;;;11.50;99.90;;;;;;4966963;28;20059;-78
2022/11/07 07:36:11;;;;;;;19.45;8.07;;;10.80;99.90;;;;;;4964783;29;20326;-79
2022/11/07 07:38:40;;;;;;;21.77;8.50;;;11.60;99.90;;;;;;4966513;28;20039;-78
2022/11/07 07:41:06;;;;;;;19.13;8.52;;;11.90;99.90;;;;;;4968503;28;20055;-79
2022/11/07 07:43:33;;;;;;;19.15;8.85;;;10.80;99.90;;;;;;4949938;28;20057;-78
2022/11/07 07:46:00;;;;;;;18.92;9.20;;;11.40;99.90;;;;;;4946598;28;20034;-79
2022/11/07 07:48:27;;;;;;;23.13;9.50;;;11.20;99.90;;;;;;4965589;28;20043;-79
2022/11/07 07:50:53;;;;;;;22.27;9.55;;;11.00;99.90;;;;;;4955946;29;20039;-79
2022/11/07 07:53:19;;;;;;;18.27;8.35;;;11.80;99.90;;;;;;4964198;28;20054;-79
2022/11/07 07:55:45;;;;;;;15.95;8.50;;;11.00;99.90;;;;;;4949796;28;20069;-80
2022/11/07 07:58:12;;;;;;;20.25;9.02;;;11.60;99.90;;;;;;4980846;28;20035;-80
2022/11/07 08:00:38;;;;;;;15.10;8.85;;;11.90;99.90;;;;;;4983753;28;20194;-80
2022/11/07 08:03:11;;;;;;;28.50;11.10;;;11.20;99.90;;;;;;4948531;29;20125;-80
2022/11/07 08:05:38;;;;;;;17.38;8.50;;;11.20;99.90;;;;;;4967542;28;20114;-81
2022/11/07 08:08:06;;;;;;;17.30;8.25;;;11.00;99.90;;;;;;4948269;29;20062;-80
2022/11/07 08:10:32;;;;;;;17.83;8.65;;;11.00;99.90;;;;;;4966892;28;20248;-80
2022/11/07 08:12:58;;;;;;;19.67;9.30;;;11.80;99.90;;;;;;4949363;29;20210;-80
2022/11/07 08:15:24;;;;;;;21.20;8.23;;;11.10;99.90;;;;;;4964931;28;20039;-85
2022/11/07 08:17:59;;;;;;;14.43;9.43;;;13.10;99.90;;;;;;4933899;29;20105;-85
2022/11/07 08:20:28;;;;;;;26.15;10.98;;;11.40;99.90;;;;;;4965617;28;20483;-82
2022/11/07 08:23:05;;;;;;;27.30;9.57;;;11.50;99.90;;;;;;4949302;29;20507;-82
2022/11/07 08:25:31;;;;;;;15.68;7.13;;;11.20;99.90;;;;;;4934792;28;20043;-79
2022/11/07 08:27:57;;;;;;;18.70;8.05;;;11.40;99.90;;;;;;4961739;28;20230;-79
2022/11/07 08:30:22;;;;;;;20.67;10.20;;;11.90;99.90;;;;;;4968028;28;20104;-80
2022/11/07 08:32:48;;;;;;;15.73;8.68;;;11.80;99.90;;;;;;4948363;29;20035;-80
2022/11/07 08:35:14;;;;;;;20.42;10.18;;;11.80;99.90;;;;;;4960141;29;20114;-80
2022/11/07 08:38:06;;;;;;;16.42;7.35;;;12.00;99.90;;;;;;4932133;29;20062;-80
2022/11/07 08:40:32;;;;;;;17.38;8.80;;;12.00;99.90;;;;;;4942928;29;20325;-80
2022/11/07 08:42:59;;;;;;;15.32;8.48;;;12.10;99.90;;;;;;4938384;29;20044;-80
2022/11/07 08:45:31;;;;;;;27.23;9.73;;;12.00;99.90;;;;;;4942424;29;20102;-79
2022/11/07 08:47:57;;;;;;;15.55;8.25;;;12.00;99.90;;;;;;4947800;29;20043;-78
2022/11/07 08:50:24;;;;;;;18.27;8.73;;;11.30;99.90;;;;;;4945536;29;20106;-80
2022/11/07 08:52:50;;;;;;;18.00;8.32;;;11.40;99.90;;;;;;4940741;29;20047;-78
2022/11/07 08:55:15;;;;;;;19.85;9.25;;;11.80;99.90;;;;;;4947537;29;20043;-78
2022/11/07 08:57:41;;;;;;;24.17;9.48;;;11.70;99.90;;;;;;4949561;28;20064;-79
2022/11/07 09:00:07;;;;;;;19.63;8.88;;;11.50;99.90;;;;;;4942757;29;20035;-80
2022/11/07 09:02:36;;;;;;;23.45;8.82;;;11.70;99.90;;;;;;4955848;29;20201;-78
2022/11/07 09:05:02;;;;;;;25.95;9.05;;;11.40;99.90;;;;;;4955799;29;20041;-79
2022/11/07 09:07:28;;;;;;;21.05;8.35;;;11.80;99.90;;;;;;4944222;29;20062;-78
2022/11/07 09:09:53;;;;;;;16.85;8.20;;;12.30;99.90;;;;;;4959432;28;20039;-79
2022/11/07 09:12:19;;;;;;;15.85;7.90;;;11.80;99.90;;;;;;4940516;29;20099;-79
2022/11/07 09:14:45;;;;;;;16.95;8.02;;;11.70;99.90;;;;;;4939521;29;20078;-80
2022/11/07 09:17:10;;;;;;;17.20;8.45;;;11.70;99.90;;;;;;4946175;29;20035;-79
2022/11/07 09:19:36;;;;;;;20.08;7.70;;;11.80;99.90;;;;;;4946766;28;20035;-79
2022/11/07 09:22:02;;;;;;;22.23;8.27;;;12.20;99.90;;;;;;4941221;29;20023;-79
2022/11/07 09:24:28;;;;;;;19.08;7.90;;;12.00;99.90;;;;;;4964867;28;20046;-77
2022/11/07 09:26:53;;;;;;;18.98;8.07;;;12.50;99.90;;;;;;4943314;28;20269;-78
2022/11/07 09:29:19;;;;;;;25.63;8.30;;;12.40;99.90;;;;;;4941925;29;20039;-79
2022/11/07 09:31:45;;;;;;;18.77;7.85;;;11.90;99.90;;;;;;4914981;29;20039;-78
2022/11/07 09:34:11;;;;;;;15.68;7.28;;;11.70;99.90;;;;;;4937451;29;20387;-79
2022/11/07 09:36:36;;;;;;;18.52;7.43;;;11.70;99.90;;;;;;4914571;29;20031;-79
2022/11/07 09:39:08;;;;;;;15.60;8.18;;;12.10;99.90;;;;;;4913227;29;20074;-79
2022/11/07 09:42:09;;;;;;;19.00;7.93;;;12.60;99.90;;;;;;4929813;29;20385;-80
2022/11/07 09:45:00;;;;;;;17.58;6.40;;;12.40;99.90;;;;;;4968049;28;20034;-80
2022/11/07 09:47:50;;;;;;;18.02;6.20;;;11.80;99.90;;;;;;4959877;28;20062;-78
2022/11/07 09:50:22;;;;;;;12.68;6.47;;;12.50;99.90;;;;;;4972807;28;20094;-78
2022/11/07 09:52:57;;;;;;;15.75;6.35;;;11.90;99.90;;;;;;4958326;28;20031;-79
2022/11/07 09:55:25;;;;;;;;;;;12.10;99.90;;;;;;4947590;28;20042;-79
2022/11/07 09:57:56;;;;;;;15.32;6.18;;;12.60;99.90;;;;;;4939462;29;19918;-79
2022/11/07 10:00:22;;;;;;;17.70;6.65;;;12.70;99.90;;;;;;4944505;28;20106;-79
2022/11/07 10:02:52;;;;;;;13.55;7.25;;;12.80;99.90;;;;;;4939794;28;20195;-80
2022/11/07 10:05:40;;;;;;;14.80;6.07;;;12.10;99.90;;;;;;4961695;28;20091;-80
2022/11/07 10:08:17;;;;;;;17.48;5.85;;;12.50;99.90;;;;;;4954151;28;20050;-81
2022/11/07 10:10:56;;;;;;;17.58;5.72;;;12.00;99.90;;;;;;4939225;29;20039;-80
2022/11/07 10:13:47;;;;;;;11.15;5.07;;;12.10;99.90;;;;;;4961646;28;20187;-80
2022/11/07 10:16:12;;;;;;;14.32;5.38;;;12.10;99.90;;;;;;4941398;29;20077;-81
2022/11/07 10:18:51;;;;;;;10.80;5.18;;;12.20;99.90;;;;;;4946826;28;20298;-79
2022/11/07 10:21:33;;;;;;;16.08;5.75;;;12.90;99.90;;;;;;4956398;28;20028;-79
2022/11/07 10:24:05;;;;;;;12.05;4.97;;;12.40;99.90;;;;;;4951452;28;20035;-78
2022/11/07 10:26:31;;;;;;;12.07;5.13;;;12.50;99.90;;;;;;4962410;28;20050;-78
2022/11/07 10:29:13;;;;;;;12.15;5.22;;;12.80;99.90;;;;;;4955635;28;20078;-80
2022/11/07 10:31:43;;;;;;;10.57;5.18;;;13.00;99.90;;;;;;4960161;28;20091;-77
2022/11/07 10:34:21;;;;;;;11.93;5.05;;;13.10;99.90;;;;;;4959807;28;20047;-79
2022/11/07 10:36:46;;;;;;;15.07;5.60;;;12.90;99.90;;;;;;4951738;28;20055;-79
2022/11/07 10:39:17;;;;;;;13.50;4.55;;;12.70;99.90;;;;;;4973943;28;20027;-78
2022/11/07 10:42:16;;;;;;;15.50;5.15;;;12.30;99.90;;;;;;4971966;28;20055;-80
2022/11/07 10:44:42;;;;;;;13.98;4.65;;;12.30;99.90;;;;;;4949958;28;20090;-80
2022/11/07 10:47:21;;;;;;;18.27;4.68;;;12.90;99.90;;;;;;4969450;28;20038;-79
2022/11/07 10:50:19;;;;;;;11.35;4.53;;;12.40;99.90;;;;;;4945504;29;20344;-80
2022/11/07 10:53:01;;;;;;;9.07;4.53;;;12.70;99.90;;;;;;4953391;29;20035;-79
2022/11/07 10:55:29;;;;;;;13.60;4.30;;;12.50;99.90;;;;;;4977158;28;20095;-78
2022/11/07 10:58:05;;;;;;;15.93;4.00;;;13.30;99.90;;;;;;4962178;28;20037;-78
2022/11/07 11:00:33;;;;;;;12.07;4.22;;;13.20;99.90;;;;;;4967785;28;20397;-79
2022/11/07 11:02:59;;;;;;;10.65;4.07;;;12.60;99.90;;;;;;4961523;28;20269;-79
2022/11/07 11:05:49;;;;;;;11.23;4.00;;;13.50;99.90;;;;;;4979799;28;20165;-78
2022/11/07 11:08:30;;;;;;;14.43;4.38;;;13.40;99.90;;;;;;4981939;28;20037;-79
2022/11/07 11:10:56;;;;;;;12.90;4.13;;;12.90;99.90;;;;;;4964598;28;20031;-81
2022/11/07 11:13:27;;;;;;;13.55;4.50;;;12.70;99.90;;;;;;4951175;28;20213;-80
2022/11/07 11:15:55;;;;;;;13.45;4.25;;;13.30;99.90;;;;;;4975056;28;20035;-81
2022/11/07 11:18:21;;;;;;;10.32;4.40;;;12.70;99.90;;;;;;4971371;28;20210;-80
2022/11/07 11:20:56;;;;;;;13.75;4.38;;;13.20;99.90;;;;;;4972639;28;20031;-80
2022/11/07 11:23:25;;;;;;;14.80;4.80;;;13.40;99.90;;;;;;4968631;28;20031;-80
2022/11/07 11:26:07;;;;;;;11.18;4.47;;;12.60;99.90;;;;;;4968093;28;20079;-80
2022/11/07 11:28:47;;;;;;;17.48;4.85;;;13.40;99.90;;;;;;4950679;28;20038;-81
2022/11/07 11:31:29;;;;;;;12.02;4.07;;;12.70;99.90;;;;;;4985016;28;20043;-80
2022/11/07 11:34:05;;;;;;;19.27;5.50;;;13.20;99.90;;;;;;4953913;28;20030;-80
2022/11/07 11:36:38;;;;;;;12.45;4.40;;;13.10;99.90;;;;;;4968066;28;20125;-80
2022/11/07 11:39:11;;;;;;;12.63;4.82;;;12.90;99.90;;;;;;4949289;29;20027;-80
2022/11/07 11:41:49;;;;;;;11.25;4.28;;;12.70;99.90;;;;;;4957755;28;20165;-80
2022/11/07 11:44:31;;;;;;;11.82;4.57;;;13.30;99.90;;;;;;4970317;28;20038;-79
2022/11/07 11:47:07;;;;;;;13.07;4.53;;;13.50;99.90;;;;;;4950034;29;20042;-80
2022/11/07 11:49:43;;;;;;;12.95;4.20;;;13.10;99.90;;;;;;4978913;28;20252;-82
2022/11/07 11:52:16;;;;;;;9.88;5.00;;;13.10;99.90;;;;;;4967814;28;20185;-81
2022/11/07 11:54:46;;;;;;;13.15;5.20;;;12.90;99.90;;;;;;4967320;28;20049;-81
2022/11/07 11:57:39;;;;;;;10.63;4.40;;;12.90;99.90;;;;;;4949339;29;20035;-83
2022/11/07 12:00:08;;;;;;;14.43;4.38;;;13.00;99.90;;;;;;4963823;28;20026;-81
2022/11/07 12:02:52;;;;;;;10.25;4.15;;;13.50;99.90;;;;;;4954582;28;20031;-82
2022/11/07 12:05:37;;;;;;;9.73;4.13;;;12.80;99.90;;;;;;4960675;28;20035;-82
2022/11/07 12:08:30;;;;;;;13.55;4.72;;;13.60;99.90;;;;;;4948733;29;20229;-81
2022/11/07 12:11:11;;;;;;;7.88;3.78;;;13.20;99.90;;;;;;4964990;28;20042;-82
2022/11/07 12:13:48;;;;;;;12.25;4.07;;;13.10;99.90;;;;;;4964533;28;20031;-81
2022/11/07 12:16:33;;;;;;;7.55;3.95;;;13.60;99.90;;;;;;4978360;28;20334;-81
2022/11/07 12:19:37;;;;;;;11.63;4.05;;;13.80;99.90;;;;;;4961120;28;20317;-81
2022/11/07 12:22:13;;;;;;;8.05;3.95;;;13.30;99.90;;;;;;4938453;28;20039;-80
2022/11/07 12:24:55;;;;;;;9.80;3.90;;;13.30;99.90;;;;;;4966766;28;20031;-80
2022/11/07 12:27:42;;;;;;;12.43;3.78;;;13.30;99.90;;;;;;4945288;28;20031;-81
2022/11/07 12:30:27;;;;;;;10.63;3.47;;;13.40;99.90;;;;;;4962876;28;20106;-80
2022/11/07 12:33:14;;;;;;;12.55;4.93;;;13.70;99.90;;;;;;4964720;28;20098;-81
2022/11/07 12:35:55;;;;;;;13.93;3.97;;;13.60;99.90;;;;;;4952648;29;20043;-81
2022/11/07 12:39:03;;;;;;;8.55;4.00;;;14.10;99.90;;;;;;4963296;28;20034;-81
2022/11/07 12:41:38;;;;;;;14.27;4.22;;;13.80;99.90;;;;;;4947827;28;20031;-82
2022/11/07 12:44:14;;;;;;;13.88;4.32;;;13.40;99.90;;;;;;4957717;28;20067;-82
2022/11/07 12:46:59;;;;;;;8.73;4.00;;;13.40;99.90;;;;;;4967398;28;20039;-81
2022/11/07 12:49:50;;;;;;;9.30;3.90;;;13.80;99.90;;;;;;4963995;28;20039;-81
2022/11/07 12:52:45;;;;;;;6.13;3.22;;;13.50;99.90;;;;;;4948672;28;20344;-81
2022/11/07 12:55:37;;;;;;;9.35;3.88;;;14.00;99.90;;;;;;4963809;29;20035;-82
2022/11/07 12:58:06;;;;;;;8.75;3.03;;;13.60;99.90;;;;;;4963659;28;20065;-81
2022/11/07 13:00:34;;;;;;;10.82;3.40;;;13.70;99.90;;;;;;4965134;28;20337;-79
2022/11/07 13:03:29;;;;;;;7.40;3.15;;;13.90;99.90;;;;;;4947594;28;20027;-78
2022/11/07 13:06:17;;;;;;;6.07;3.07;;;13.80;99.90;;;;;;4962670;28;20217;-79
2022/11/07 13:08:49;;;;;;;7.63;3.08;;;13.50;99.90;;;;;;4976884;28;20321;-78
2022/11/07 13:11:35;;;;;;;8.95;3.35;;;14.00;99.90;;;;;;4983411;28;20225;-79